createdAt,value
2017-10-14T00:02:27.172Z,12.10
2017-10-14T00:04:57.615Z,11.90
2017-10-14T00:07:28.064Z,11.90
2017-10-14T00:09:58.258Z,11.80
2017-10-14T00:12:37.593Z,11.80
2017-10-14T00:15:19.086Z,11.80
2017-10-14T00:17:50.958Z,11.90
2017-10-14T00:20:28.027Z,12.00
2017-10-14T00:22:55.688Z,12.00
2017-10-14T00:25:24.381Z,12.00
2017-10-14T00:27:53.462Z,11.90
2017-10-14T00:30:24.293Z,11.90
2017-10-14T00:32:51.904Z,11.80
2017-10-14T00:35:24.392Z,11.90
2017-10-14T00:37:53.176Z,12.00
2017-10-14T00:40:27.170Z,12.00
2017-10-14T00:43:00.473Z,12.00
2017-10-14T00:45:30.642Z,12.00
2017-10-14T00:48:00.035Z,11.90
2017-10-14T00:50:28.591Z,11.90
2017-10-14T00:53:02.498Z,12.00
2017-10-14T00:55:34.189Z,12.00
2017-10-14T00:58:01.856Z,11.90
2017-10-14T01:00:39.324Z,12.00
2017-10-14T01:03:19.009Z,11.90
2017-10-14T01:05:51.585Z,11.80
2017-10-14T01:08:24.039Z,11.80
2017-10-14T01:13:25.669Z,11.90
2017-10-14T01:15:53.240Z,11.80
2017-10-14T01:18:22.108Z,11.80
2017-10-14T01:23:30.903Z,11.80
2017-10-14T01:26:00.264Z,11.70
2017-10-14T01:28:30.848Z,11.60
2017-10-14T01:31:01.189Z,11.70
2017-10-14T01:33:30.970Z,11.70
2017-10-14T01:36:02.304Z,11.60
2017-10-14T01:38:33.690Z,11.60
2017-10-14T01:41:03.579Z,11.50
2017-10-14T01:43:42.498Z,11.50
2017-10-14T01:46:18.055Z,11.60
2017-10-14T01:48:48.842Z,11.40
2017-10-14T01:51:18.390Z,11.40
2017-10-14T01:53:56.590Z,11.40
2017-10-14T01:56:27.181Z,11.30
2017-10-14T01:58:56.534Z,11.30
2017-10-14T02:01:26.616Z,11.30
2017-10-14T02:03:57.544Z,11.30
2017-10-14T02:06:25.545Z,11.40
2017-10-14T02:08:55.276Z,11.40
2017-10-14T02:11:26.417Z,11.30
2017-10-14T02:13:58.517Z,11.30
2017-10-14T02:16:28.484Z,11.30
2017-10-14T02:18:56.077Z,11.40
2017-10-14T02:21:28.305Z,11.40
2017-10-14T02:23:57.029Z,11.40
2017-10-14T02:26:26.974Z,11.40
2017-10-14T02:29:02.064Z,11.30
2017-10-14T02:31:32.222Z,11.20
2017-10-14T02:34:05.061Z,11.20
2017-10-14T02:36:33.339Z,11.30
2017-10-14T02:39:06.296Z,11.20
2017-10-14T02:44:18.376Z,11.20
2017-10-14T02:46:50.721Z,11.20
2017-10-14T02:49:30.579Z,11.20
2017-10-14T02:52:01.220Z,11.20
2017-10-14T02:54:36.236Z,11.10
2017-10-14T02:57:11.209Z,11.10
2017-10-14T02:59:51.445Z,11.10
2017-10-14T03:02:21.648Z,11.00
2017-10-14T03:04:52.786Z,11.00
2017-10-14T03:07:25.128Z,10.90
2017-10-14T03:10:00.777Z,11.00
2017-10-14T03:12:33.673Z,11.00
2017-10-14T03:15:02.257Z,11.00
2017-10-14T03:20:20.532Z,11.10
2017-10-14T03:25:35.294Z,11.00
2017-10-14T03:28:04.966Z,11.00
2017-10-14T03:30:35.538Z,11.00
2017-10-14T03:35:58.590Z,11.00
2017-10-14T03:38:34.248Z,11.00
2017-10-14T03:41:05.779Z,11.00
2017-10-14T03:43:41.423Z,11.00
2017-10-14T03:46:16.234Z,11.00
2017-10-14T03:48:47.723Z,11.10
2017-10-14T03:51:20.594Z,11.00
2017-10-14T03:53:50.970Z,11.00
2017-10-14T03:56:22.607Z,11.00
2017-10-14T03:58:50.771Z,10.90
2017-10-14T04:01:21.308Z,10.80
2017-10-14T04:03:51.128Z,10.70
2017-10-14T04:06:27.524Z,10.80
2017-10-14T04:08:57.697Z,10.70
2017-10-14T04:11:25.268Z,10.70
2017-10-14T04:14:01.619Z,10.70
2017-10-14T04:16:33.290Z,10.70
2017-10-14T04:19:04.377Z,10.70
2017-10-14T04:21:32.229Z,10.70
2017-10-14T04:24:04.654Z,10.70
2017-10-14T04:26:34.709Z,10.70
2017-10-14T04:31:47.485Z,10.70
2017-10-14T04:34:23.594Z,10.70
2017-10-14T04:36:58.487Z,10.70
2017-10-14T04:39:29.657Z,10.70
2017-10-14T04:42:06.573Z,10.70
2017-10-14T04:44:39.402Z,10.70
2017-10-14T04:47:19.979Z,10.70
2017-10-14T04:52:44.497Z,10.70
2017-10-14T04:55:17.459Z,10.60
2017-10-14T04:57:51.703Z,10.60
2017-10-14T05:00:30.091Z,10.70
2017-10-14T05:03:02.512Z,10.60
2017-10-14T05:05:36.753Z,10.70
2017-10-14T05:08:07.474Z,10.70
2017-10-14T05:13:15.288Z,10.50
2017-10-14T05:15:47.544Z,10.50
2017-10-14T05:21:07.446Z,10.30
2017-10-14T05:23:45.807Z,10.30
2017-10-14T05:26:17.753Z,10.30
2017-10-14T05:28:54.737Z,10.40
2017-10-14T05:31:33.901Z,10.40
2017-10-14T05:34:07.388Z,10.20
2017-10-14T05:36:45.821Z,10.20
2017-10-14T05:39:16.294Z,10.20
2017-10-14T05:41:48.215Z,10.20
2017-10-14T05:44:18.666Z,10.20
2017-10-14T05:46:51.172Z,10.20
2017-10-14T05:49:26.725Z,10.20
2017-10-14T05:51:54.872Z,10.20
2017-10-14T05:54:26.461Z,10.10
2017-10-14T05:58:18.074Z,10.30
2017-10-14T06:03:48.926Z,10.30
2017-10-14T06:06:28.051Z,10.30
2017-10-14T06:11:37.063Z,10.40
2017-10-14T06:14:12.360Z,10.30
2017-10-14T06:16:57.192Z,10.30
2017-10-14T06:22:23.708Z,10.40
2017-10-14T06:25:19.282Z,10.40
2017-10-14T06:27:51.246Z,10.40
2017-10-14T06:30:24.832Z,10.40
2017-10-14T06:32:55.870Z,10.50
2017-10-14T06:35:23.659Z,10.50
2017-10-14T06:40:52.706Z,10.60
2017-10-14T06:43:23.135Z,10.60
2017-10-14T06:45:53.043Z,10.70
2017-10-14T06:48:27.452Z,10.70
2017-10-14T06:51:06.640Z,10.60
2017-10-14T06:56:15.560Z,10.70
2017-10-14T06:58:49.598Z,10.80
2017-10-14T07:01:18.607Z,10.90
2017-10-14T07:03:46.567Z,10.80
2017-10-14T07:06:22.604Z,10.90
2017-10-14T07:11:28.053Z,11.00
2017-10-14T07:14:01.431Z,11.20
2017-10-14T07:16:33.532Z,11.10
2017-10-14T07:24:35.710Z,11.20
2017-10-14T07:27:05.031Z,11.30
2017-10-14T07:29:41.319Z,11.30
2017-10-14T07:34:51.340Z,11.50
2017-10-14T07:37:24.028Z,11.50
2017-10-14T07:39:52.589Z,11.60
2017-10-14T07:42:22.429Z,11.70
2017-10-14T07:44:57.306Z,11.80
2017-10-14T07:47:30.450Z,11.90
2017-10-14T07:50:05.718Z,11.90
2017-10-14T07:52:36.239Z,12.30
2017-10-14T07:55:06.907Z,12.30
2017-10-14T07:57:39.943Z,12.30
2017-10-14T08:00:12.786Z,12.30
2017-10-14T08:02:47.454Z,12.50
2017-10-14T08:05:17.765Z,12.60
2017-10-14T08:07:52.991Z,12.60
2017-10-14T08:10:30.018Z,12.70
2017-10-14T08:12:59.354Z,12.90
2017-10-14T08:20:46.611Z,13.10
2017-10-14T08:23:19.194Z,13.20
2017-10-14T08:25:50.708Z,13.30
2017-10-14T08:28:22.949Z,13.30
2017-10-14T08:30:51.856Z,13.40
2017-10-14T08:33:21.728Z,13.60
2017-10-14T08:38:26.769Z,13.60
2017-10-14T08:40:58.456Z,13.70
2017-10-14T08:43:26.478Z,13.80
2017-10-14T08:45:57.066Z,13.90
2017-10-14T08:48:27.135Z,14.00
2017-10-14T08:50:54.870Z,14.00
2017-10-14T08:53:23.935Z,14.10
2017-10-14T08:55:52.731Z,14.20
2017-10-14T08:58:34.413Z,14.20
2017-10-14T09:01:04.512Z,14.40
2017-10-14T09:03:36.025Z,14.50
2017-10-14T09:06:10.897Z,14.50
2017-10-14T09:08:45.614Z,14.60
2017-10-14T09:13:53.288Z,14.80
2017-10-14T09:16:22.652Z,14.80
2017-10-14T09:18:51.777Z,14.80
2017-10-14T09:21:22.804Z,14.90
2017-10-14T09:23:53.898Z,15.00
2017-10-14T09:26:27.861Z,15.10
2017-10-14T09:28:57.255Z,15.10
2017-10-14T09:31:28.203Z,15.20
2017-10-14T09:33:57.716Z,15.20
2017-10-14T09:36:31.839Z,15.30
2017-10-14T09:38:59.605Z,15.30
2017-10-14T09:41:28.914Z,15.40
2017-10-14T09:43:58.038Z,15.50
2017-10-14T09:46:29.104Z,15.50
2017-10-14T09:48:57.553Z,15.70
2017-10-14T09:51:27.070Z,15.80
2017-10-14T09:53:57.810Z,15.80
2017-10-14T09:56:27.307Z,15.90
2017-10-14T09:58:56.413Z,16.00
2017-10-14T10:01:23.964Z,16.00
2017-10-14T10:03:55.212Z,16.20
2017-10-14T10:06:27.128Z,16.20
2017-10-14T10:08:57.228Z,16.30
2017-10-14T10:11:24.833Z,16.30
2017-10-14T10:13:57.198Z,16.40
2017-10-14T10:16:24.795Z,16.40
2017-10-14T10:18:52.865Z,16.50
2017-10-14T10:21:21.776Z,16.60
2017-10-14T10:23:54.723Z,16.70
2017-10-14T10:26:23.230Z,16.70
2017-10-14T10:28:53.334Z,16.90
2017-10-14T10:33:58.369Z,17.10
2017-10-14T10:36:25.987Z,17.10
2017-10-14T10:38:57.007Z,17.20
2017-10-14T10:41:24.762Z,17.10
2017-10-14T10:43:54.606Z,17.30
2017-10-14T10:46:25.068Z,17.30
2017-10-14T10:48:53.654Z,17.30
2017-10-14T10:51:23.696Z,17.50
2017-10-14T10:53:55.568Z,17.50
2017-10-14T10:56:24.279Z,17.60
2017-10-14T10:58:52.209Z,17.60
2017-10-14T11:01:22.430Z,17.60
2017-10-14T11:03:53.003Z,17.70
2017-10-14T11:06:25.395Z,17.80
2017-10-14T11:08:54.360Z,17.90
2017-10-14T11:11:22.315Z,17.90
2017-10-14T11:13:56.293Z,18.10
2017-10-14T11:16:27.389Z,18.10
2017-10-14T11:18:57.460Z,18.10
2017-10-14T11:21:33.276Z,18.10
2017-10-14T11:24:02.024Z,18.20
2017-10-14T11:26:29.961Z,18.30
2017-10-14T11:29:02.809Z,18.30
2017-10-14T11:31:31.263Z,18.40
2017-10-14T11:33:59.363Z,18.50
2017-10-14T11:36:29.846Z,18.50
2017-10-14T11:38:58.691Z,18.60
2017-10-14T11:41:31.864Z,18.60
2017-10-14T11:43:59.827Z,18.70
2017-10-14T11:46:31.764Z,18.70
2017-10-14T11:49:00.825Z,18.70
2017-10-14T11:51:33.557Z,18.80
2017-10-14T11:54:04.607Z,18.90
2017-10-14T11:56:38.957Z,18.90
2017-10-14T11:59:11.969Z,18.90
2017-10-14T12:01:40.096Z,18.90
2017-10-14T12:04:11.660Z,18.90
2017-10-14T12:06:42.968Z,19.20
2017-10-14T12:09:10.508Z,19.20
2017-10-14T12:11:39.007Z,19.30
2017-10-14T12:14:06.568Z,19.40
2017-10-14T12:16:34.840Z,19.40
2017-10-14T12:19:04.423Z,19.40
2017-10-14T12:21:37.217Z,19.50
2017-10-14T12:24:05.481Z,19.60
2017-10-14T12:26:42.572Z,19.70
2017-10-14T12:29:12.050Z,19.80
2017-10-14T12:31:39.632Z,19.80
2017-10-14T12:34:07.980Z,19.90
2017-10-14T12:36:36.405Z,20.00
2017-10-14T12:39:04.713Z,20.10
2017-10-14T12:41:33.225Z,20.20
2017-10-14T12:44:00.954Z,20.10
2017-10-14T12:46:29.152Z,20.20
2017-10-14T12:48:59.511Z,20.30
2017-10-14T12:54:09.991Z,20.40
2017-10-14T12:56:39.952Z,20.40
2017-10-14T12:59:07.770Z,20.40
2017-10-14T13:01:35.899Z,20.50
2017-10-14T13:04:04.522Z,20.50
2017-10-14T13:06:34.356Z,20.60
2017-10-14T13:09:07.544Z,20.50
2017-10-14T13:11:42.775Z,20.50
2017-10-14T13:16:45.417Z,20.50
2017-10-14T13:19:13.276Z,20.50
2017-10-14T13:21:43.145Z,20.60
2017-10-14T13:24:12.181Z,20.60
2017-10-14T13:26:41.911Z,20.60
2017-10-14T13:29:10.558Z,20.70
2017-10-14T13:31:38.236Z,20.70
2017-10-14T13:34:14.698Z,20.70
2017-10-14T13:36:44.668Z,20.70
2017-10-14T13:39:13.094Z,20.80
2017-10-14T13:41:43.076Z,20.70
2017-10-14T13:44:13.560Z,20.80
2017-10-14T13:46:47.231Z,20.80
2017-10-14T13:49:23.722Z,20.80
2017-10-14T13:51:58.048Z,20.80
2017-10-14T13:54:27.099Z,20.80
2017-10-14T13:56:56.738Z,20.80
2017-10-14T13:59:27.386Z,20.80
2017-10-14T14:02:06.361Z,20.80
2017-10-14T14:04:35.568Z,20.70
2017-10-14T14:07:19.432Z,20.70
2017-10-14T14:09:51.015Z,20.60
2017-10-14T14:12:25.168Z,20.50
2017-10-14T14:15:01.490Z,20.10
2017-10-14T14:17:33.476Z,20.10
2017-10-14T14:20:01.416Z,19.80
2017-10-14T14:22:31.646Z,19.40
2017-10-14T14:25:03.664Z,19.10
2017-10-14T14:27:35.151Z,19.10
2017-10-14T14:30:05.826Z,18.70
2017-10-14T14:32:41.596Z,18.70
2017-10-14T14:35:12.260Z,18.60
2017-10-14T14:37:40.882Z,18.40
2017-10-14T14:40:10.796Z,18.20
2017-10-14T14:42:39.258Z,18.20
2017-10-14T14:45:15.942Z,18.10
2017-10-14T14:53:13.779Z,17.90
2017-10-14T14:58:34.891Z,17.60
2017-10-14T15:04:03.876Z,17.30
2017-10-14T15:06:38.896Z,17.20
2017-10-14T15:09:14.225Z,17.20
2017-10-14T15:11:43.892Z,17.10
2017-10-14T15:14:18.899Z,17.00
2017-10-14T15:19:35.613Z,16.90
2017-10-14T15:22:08.393Z,16.90
2017-10-14T15:24:39.965Z,16.70
2017-10-14T15:27:07.791Z,16.70
2017-10-14T15:32:20.923Z,16.40
2017-10-14T15:34:56.839Z,16.50
2017-10-14T15:37:27.268Z,16.40
2017-10-14T15:40:00.050Z,16.40
2017-10-14T15:42:30.922Z,16.30
2017-10-14T15:44:59.671Z,16.30
2017-10-14T15:47:31.043Z,16.30
2017-10-14T15:50:04.296Z,16.30
2017-10-14T15:52:38.564Z,16.20
2017-10-14T15:55:06.519Z,16.20
2017-10-14T15:57:34.706Z,16.10
2017-10-14T16:00:06.766Z,16.10
2017-10-14T16:05:06.522Z,16.10
2017-10-14T16:07:35.439Z,15.90
2017-10-14T16:10:08.661Z,15.90
2017-10-14T16:12:41.593Z,16.00
2017-10-14T16:15:11.770Z,15.90
2017-10-14T16:17:46.339Z,15.80
2017-10-14T16:22:57.955Z,15.70
2017-10-14T16:25:29.697Z,15.60
2017-10-14T16:27:59.390Z,15.70
2017-10-14T16:30:30.242Z,15.60
2017-10-14T16:32:58.900Z,15.70
2017-10-14T16:35:32.564Z,15.70
2017-10-14T16:38:03.163Z,15.50
2017-10-14T16:40:32.304Z,15.50
2017-10-14T16:43:00.908Z,15.50
2017-10-14T16:45:30.016Z,15.50
2017-10-14T16:48:01.957Z,15.50
2017-10-14T16:50:29.881Z,15.40
2017-10-14T16:52:58.732Z,15.30
2017-10-14T16:55:29.761Z,15.20
2017-10-14T16:57:59.588Z,15.30
2017-10-14T17:00:28.790Z,15.30
2017-10-14T17:02:59.105Z,15.10
2017-10-14T17:05:28.614Z,15.10
2017-10-14T17:07:57.643Z,15.10
2017-10-14T17:10:26.072Z,15.00
2017-10-14T17:12:55.831Z,15.00
2017-10-14T17:15:24.333Z,14.90
2017-10-14T17:17:56.040Z,14.90
2017-10-14T17:20:34.189Z,14.90
2017-10-14T17:23:07.921Z,14.90
2017-10-14T17:25:37.225Z,14.80
2017-10-14T17:30:54.870Z,14.80
2017-10-14T17:33:25.804Z,14.50
2017-10-14T17:35:53.788Z,14.50
2017-10-14T17:38:26.526Z,14.60
2017-10-14T17:40:57.913Z,14.60
2017-10-14T17:43:27.137Z,14.50
2017-10-14T17:45:56.619Z,14.50
2017-10-14T17:48:26.666Z,14.50
2017-10-14T17:50:56.757Z,14.50
2017-10-14T17:53:25.385Z,14.50
2017-10-14T17:55:58.328Z,14.50
2017-10-14T17:58:28.000Z,14.50
2017-10-14T18:00:55.777Z,14.50
2017-10-14T18:03:25.272Z,14.40
2017-10-14T18:05:59.730Z,14.40
2017-10-14T18:08:30.098Z,14.40
2017-10-14T18:10:59.870Z,14.30
2017-10-14T18:13:27.573Z,14.30
2017-10-14T18:15:55.218Z,14.30
2017-10-14T18:18:22.842Z,14.30
2017-10-14T18:20:50.467Z,14.30
2017-10-14T18:23:18.815Z,14.20
2017-10-14T18:25:46.357Z,14.20
2017-10-14T18:28:14.707Z,14.20
2017-10-14T18:30:42.253Z,14.20
2017-10-14T18:33:10.597Z,14.20
2017-10-14T18:35:38.158Z,14.20
2017-10-14T18:38:07.255Z,14.10
2017-10-14T18:40:34.931Z,14.20
2017-10-14T18:43:02.503Z,14.10
2017-10-14T18:45:30.224Z,14.10
2017-10-14T18:48:00.209Z,14.00
2017-10-14T18:50:28.197Z,14.00
2017-10-14T18:52:57.603Z,14.10
2017-10-14T18:55:27.691Z,13.90
2017-10-14T18:57:55.347Z,13.90
2017-10-14T19:00:28.944Z,13.90
2017-10-14T19:03:04.499Z,13.90
2017-10-14T19:05:40.043Z,13.90
2017-10-14T19:08:18.242Z,14.00
2017-10-14T19:10:52.251Z,13.90
2017-10-14T19:13:29.480Z,14.00
2017-10-14T19:15:59.623Z,13.90
2017-10-14T19:18:30.275Z,13.80
2017-10-14T19:20:59.588Z,13.80
2017-10-14T19:23:28.952Z,13.80
2017-10-14T19:26:00.351Z,13.70
2017-10-14T19:28:31.168Z,13.80
2017-10-14T19:31:02.338Z,13.80
2017-10-14T19:33:35.096Z,13.90
2017-10-14T19:36:04.987Z,13.90
2017-10-14T19:38:36.160Z,13.90
2017-10-14T19:41:07.050Z,13.80
2017-10-14T19:43:36.810Z,13.70
2017-10-14T19:46:04.496Z,13.70
2017-10-14T19:48:32.187Z,13.70
2017-10-14T19:51:02.192Z,13.60
2017-10-14T19:53:31.853Z,13.70
2017-10-14T19:56:00.931Z,13.70
2017-10-14T19:58:30.991Z,13.70
2017-10-14T20:00:58.728Z,13.80
2017-10-14T20:03:26.810Z,13.80
2017-10-14T20:05:54.833Z,13.70
2017-10-14T20:08:22.395Z,13.70
2017-10-14T20:10:50.471Z,13.70
2017-10-14T20:13:18.053Z,13.70
2017-10-14T20:15:45.743Z,13.70
2017-10-14T20:18:14.825Z,13.70
2017-10-14T20:20:42.415Z,13.60
2017-10-14T20:23:10.283Z,13.70
2017-10-14T20:25:39.594Z,13.60
2017-10-14T20:28:07.717Z,13.60
2017-10-14T20:30:35.439Z,13.60
2017-10-14T20:33:03.085Z,13.60
2017-10-14T20:35:30.754Z,13.50
2017-10-14T20:37:58.817Z,13.60
2017-10-14T20:40:26.818Z,13.50
2017-10-14T20:42:55.284Z,13.50
2017-10-14T20:45:23.075Z,13.50
2017-10-14T20:47:51.591Z,13.40
2017-10-14T20:50:19.205Z,13.50
2017-10-14T20:52:48.656Z,13.50
2017-10-14T20:55:21.505Z,13.50
2017-10-14T20:57:51.138Z,13.50
2017-10-14T21:00:21.869Z,13.40
2017-10-14T21:05:25.245Z,13.40
2017-10-14T21:08:04.910Z,13.40
2017-10-14T21:10:37.013Z,13.40
2017-10-14T21:13:07.369Z,13.40
2017-10-14T21:15:35.467Z,13.40
2017-10-14T21:18:03.647Z,13.40
2017-10-14T21:20:31.251Z,13.50
2017-10-14T21:22:59.275Z,13.40
2017-10-14T21:25:28.100Z,13.30
2017-10-14T21:27:58.695Z,13.30
2017-10-14T21:30:27.416Z,13.40
2017-10-14T21:32:55.063Z,13.30
2017-10-14T21:35:23.548Z,13.20
2017-10-14T21:37:52.919Z,13.20
2017-10-14T21:40:20.582Z,13.30
2017-10-14T21:42:49.422Z,13.20
2017-10-14T21:45:17.432Z,13.20
2017-10-14T21:47:46.023Z,13.30
2017-10-14T21:50:13.773Z,13.20
2017-10-14T21:52:42.758Z,13.20
2017-10-14T21:55:11.777Z,13.20
2017-10-14T21:57:39.376Z,13.20
2017-10-14T22:00:07.330Z,13.10
2017-10-14T22:02:34.932Z,13.10
2017-10-14T22:05:05.526Z,13.10
2017-10-14T22:07:33.261Z,13.10
2017-10-14T22:10:02.170Z,13.10
2017-10-14T22:12:33.197Z,13.00
2017-10-14T22:15:09.224Z,13.10
2017-10-14T22:20:17.506Z,13.10
2017-10-14T22:22:46.263Z,13.00
2017-10-14T22:25:17.047Z,13.00
2017-10-14T22:27:44.681Z,13.00
2017-10-14T22:30:12.603Z,13.00
2017-10-14T22:32:40.864Z,12.90
2017-10-14T22:35:14.046Z,13.00
2017-10-14T22:37:41.906Z,12.90
2017-10-14T22:40:12.750Z,12.90
2017-10-14T22:42:40.505Z,12.90
2017-10-14T22:45:08.461Z,12.80
2017-10-14T22:47:40.897Z,12.80
2017-10-14T22:50:09.289Z,12.90
2017-10-14T22:52:40.395Z,12.80
2017-10-14T22:55:11.062Z,12.80
2017-10-14T22:57:42.237Z,12.90
2017-10-14T23:00:10.962Z,12.80
2017-10-14T23:02:38.892Z,12.90
2017-10-14T23:05:10.838Z,12.80
2017-10-14T23:07:41.101Z,12.70
2017-10-14T23:10:11.259Z,12.70
2017-10-14T23:12:43.271Z,12.70
2017-10-14T23:15:13.016Z,12.60
2017-10-14T23:17:42.172Z,12.60
2017-10-14T23:20:11.003Z,12.50
2017-10-14T23:22:39.309Z,12.50
2017-10-14T23:25:08.909Z,12.40
2017-10-14T23:27:39.536Z,12.50
2017-10-14T23:30:09.145Z,12.40
2017-10-14T23:32:40.297Z,12.40
2017-10-14T23:35:09.364Z,12.40
2017-10-14T23:37:38.428Z,12.40
2017-10-14T23:40:06.434Z,12.30
2017-10-14T23:42:35.238Z,12.40
2017-10-14T23:45:04.258Z,12.20
2017-10-14T23:47:33.154Z,12.10
2017-10-14T23:50:03.425Z,12.20
2017-10-14T23:52:34.093Z,12.20
2017-10-14T23:55:03.789Z,12.20
2017-10-14T23:57:32.724Z,12.10
